Time;durP1;ratioP1;P1;durP2;ratioP2;P2;SDS_P1;SDS_P2;PMS_P1;PMS_P2;Temp;Humidity;BMP_temperature;BMP_pressure;BME280_temperature;BME280_humidity;BME280_pressure;Samples;Min_cycle;Max_cycle;Signal;HPM_P1;HPM_P2
2023/04/29 00:02:25;;;;;;;3.20;1.53;;;;;;;19.11;68.28;100016.78;5069634;28;20455;-63
2023/04/29 00:04:51;;;;;;;4.27;1.80;;;;;;;19.10;68.27;100020.84;5068972;28;20249;-63
2023/04/29 00:07:16;;;;;;;2.50;1.40;;;;;;;19.09;68.34;100025.75;5069712;28;20199;-63
2023/04/29 00:09:42;;;;;;;4.40;1.93;;;;;;;19.08;68.33;100018.38;5070002;28;20417;-63
2023/04/29 00:12:09;;;;;;;3.80;1.63;;;;;;;19.08;68.29;100023.28;5072056;28;20304;-63
2023/04/29 00:14:35;;;;;;;2.63;1.50;;;;;;;19.08;68.32;100021.25;5069384;28;20182;-63
2023/04/29 00:17:00;;;;;;;4.57;1.80;;;;;;;19.08;68.31;100029.84;5071539;28;20915;-63
2023/04/29 00:19:26;;;;;;;3.60;1.77;;;;;;;19.09;68.16;100024.91;5069556;28;20175;-64
2023/04/29 00:21:53;;;;;;;2.27;1.47;;;;;;;19.08;68.26;100029.00;5072037;28;20186;-64
2023/04/29 00:24:18;;;;;;;3.10;1.57;;;;;;;19.08;68.38;100024.13;5072690;28;20199;-64
2023/04/29 00:26:44;;;;;;;2.93;1.77;;;;;;;19.08;68.02;100029.00;5070261;28;20418;-63
2023/04/29 00:29:09;;;;;;;2.87;1.50;;;;;;;19.08;68.04;100032.69;5069827;28;20162;-64
2023/04/29 00:31:36;;;;;;;3.23;1.50;;;;;;;19.07;68.20;100028.16;5070625;28;20179;-63
2023/04/29 00:34:01;;;;;;;2.60;1.43;;;;;;;19.08;68.06;100041.28;5069065;28;20171;-63
2023/04/29 00:36:27;;;;;;;3.13;1.47;;;;;;;19.06;68.04;100040.81;5068705;28;20551;-63
2023/04/29 00:38:52;;;;;;;2.50;1.30;;;;;;;19.06;68.00;100040.81;5071090;28;20661;-63
2023/04/29 00:41:18;;;;;;;3.10;1.60;;;;;;;19.06;67.88;100037.97;5068868;28;20183;-63
2023/04/29 00:43:44;;;;;;;2.73;1.47;;;;;;;19.05;68.00;100036.31;5078471;28;20202;-63
2023/04/29 00:46:09;;;;;;;2.70;1.80;;;;;;;19.06;68.03;100025.72;5082017;28;20175;-63
2023/04/29 00:48:34;;;;;;;2.13;1.47;;;;;;;19.06;67.94;100032.25;5069034;28;20159;-63
2023/04/29 00:51:00;;;;;;;3.27;1.90;;;;;;;19.05;68.24;100029.78;5071580;28;20171;-63
2023/04/29 00:53:26;;;;;;;3.63;1.73;;;;;;;19.05;67.91;100027.75;5071211;28;20175;-63
2023/04/29 00:55:51;;;;;;;2.93;1.50;;;;;;;19.04;67.96;100033.84;5068436;28;20183;-63
2023/04/29 00:58:18;;;;;;;2.93;1.60;;;;;;;19.04;67.86;100040.41;5070682;28;20586;-63
2023/04/29 01:00:45;;;;;;;4.27;1.60;;;;;;;19.04;67.94;100037.53;5068486;28;20159;-63
2023/04/29 01:03:11;;;;;;;2.40;1.40;;;;;;;19.05;67.65;100036.31;5052934;28;20989;-63
2023/04/29 01:05:37;;;;;;;3.40;1.53;;;;;;;19.04;67.58;100040.41;5052765;28;20478;-63
2023/04/29 01:08:05;;;;;;;2.80;1.40;;;;;;;19.04;67.72;100037.53;5068252;28;20475;-63
2023/04/29 01:10:39;;;;;;;4.43;1.30;;;;;;;19.03;67.74;100035.06;5069165;28;20262;-63
2023/04/29 01:13:08;;;;;;;3.40;1.70;;;;;;;19.02;67.74;100042.81;5056144;28;20465;-63
2023/04/29 01:15:36;;;;;;;2.40;1.10;;;;;;;19.03;67.73;100044.50;5068991;28;20433;-63
2023/04/29 01:18:23;;;;;;;2.30;1.50;;;;;;;19.04;67.58;100051.00;5070239;28;20472;-63
2023/04/29 01:20:48;;;;;;;2.13;1.20;;;;;;;19.02;67.74;100044.88;5071131;28;20455;-63
2023/04/29 01:23:14;;;;;;;2.43;1.47;;;;;;;19.03;67.65;100043.66;5052995;28;20460;-63
2023/04/29 01:25:39;;;;;;;2.60;1.47;;;;;;;19.02;67.61;100048.53;5070577;28;20175;-63
2023/04/29 01:28:28;;;;;;;2.90;1.47;;;;;;;19.02;67.57;100047.72;5070958;28;20174;-63
2023/04/29 01:31:03;;;;;;;2.20;1.27;;;;;;;19.02;67.75;100044.88;5049989;28;20171;-63
2023/04/29 01:33:37;;;;;;;2.63;1.20;;;;;;;19.03;67.74;100044.50;5068227;28;20429;-63
2023/04/29 01:36:31;;;;;;;3.13;1.30;;;;;;;19.00;67.77;100045.25;5052814;28;20451;-63
2023/04/29 01:39:07;;;;;;;2.90;1.40;;;;;;;19.02;67.58;100045.69;5035106;28;20431;-63
2023/04/29 01:41:51;;;;;;;5.47;1.67;;;;;;;19.02;67.48;100042.81;5057500;28;20818;-63
2023/04/29 01:44:19;;;;;;;2.27;1.30;;;;;;;19.01;67.35;100044.03;5029970;28;21365;-63
2023/04/29 01:46:49;;;;;;;2.30;1.37;;;;;;;19.01;67.55;100049.75;5030128;28;20444;-63
2023/04/29 01:49:15;;;;;;;2.77;1.53;;;;;;;19.02;67.51;100047.72;5014108;28;20462;-63
2023/04/29 01:51:40;;;;;;;2.80;1.53;;;;;;;19.01;67.13;100049.75;5079576;28;21014;-63
2023/04/29 01:54:05;;;;;;;3.23;1.57;;;;;;;19.01;67.43;100052.63;5075943;28;20166;-63
2023/04/29 01:56:31;;;;;;;3.90;1.20;;;;;;;19.01;67.43;100051.81;5075536;28;20174;-63
2023/04/29 01:58:56;;;;;;;2.63;1.50;;;;;;;19.00;67.34;100050.97;5087510;28;20319;-63
2023/04/29 02:01:22;;;;;;;2.83;1.40;;;;;;;19.00;67.36;100056.69;5084800;28;20158;-63
2023/04/29 02:03:48;;;;;;;1.97;1.17;;;;;;;19.01;67.39;100057.53;5084099;28;20217;-63
2023/04/29 02:06:13;;;;;;;2.80;1.50;;;;;;;19.00;67.17;100056.69;5059418;28;20205;-63
2023/04/29 02:08:38;;;;;;;2.50;1.67;;;;;;;19.00;67.42;100053.00;5072572;28;20237;-63
2023/04/29 02:11:04;;;;;;;2.47;1.30;;;;;;;18.99;67.30;100054.22;5068459;28;20155;-63
2023/04/29 02:13:30;;;;;;;2.90;1.60;;;;;;;19.00;67.18;100050.16;5068331;28;20227;-63
2023/04/29 02:15:56;;;;;;;2.77;1.40;;;;;;;19.01;67.28;100048.94;5086502;28;20181;-63
2023/04/29 02:18:21;;;;;;;4.87;1.40;;;;;;;18.99;67.20;100055.06;5087859;28;20424;-63
2023/04/29 02:20:49;;;;;;;2.00;1.30;;;;;;;18.99;67.31;100054.22;5075441;28;20187;-63
2023/04/29 02:23:14;;;;;;;3.87;1.70;;;;;;;18.98;67.32;100062.00;5069630;28;20235;-63
2023/04/29 02:25:40;;;;;;;2.90;1.60;;;;;;;18.99;67.27;100057.91;5087089;28;20405;-63
2023/04/29 02:28:06;;;;;;;2.70;1.30;;;;;;;19.00;67.10;100062.44;5087498;28;20189;-63
2023/04/29 02:30:31;;;;;;;2.97;1.40;;;;;;;19.00;67.21;100061.59;5069471;28;20213;-63
2023/04/29 02:32:56;;;;;;;3.13;1.50;;;;;;;18.99;67.32;100057.91;5067851;28;20209;-63
2023/04/29 02:35:22;;;;;;;2.70;1.43;;;;;;;18.99;67.49;100055.06;5068104;28;20171;-63
2023/04/29 02:37:47;;;;;;;3.83;1.30;;;;;;;18.99;67.37;100060.78;5051736;28;20182;-63
2023/04/29 02:40:13;;;;;;;2.13;1.10;;;;;;;19.00;67.11;100071.00;5069121;28;20186;-63
2023/04/29 02:42:38;;;;;;;4.40;1.50;;;;;;;19.00;67.20;100071.00;5067370;28;20213;-64
2023/04/29 02:45:04;;;;;;;2.20;1.30;;;;;;;18.99;67.21;100085.69;5066486;28;20183;-63
2023/04/29 02:47:30;;;;;;;3.07;1.60;;;;;;;18.99;67.08;100083.66;5068356;28;20190;-63
2023/04/29 02:49:55;;;;;;;2.73;1.27;;;;;;;18.98;67.07;100087.75;5069238;28;20421;-63
2023/04/29 02:52:21;;;;;;;2.37;1.40;;;;;;;18.98;67.23;100087.75;5067083;28;20173;-63
2023/04/29 02:54:46;;;;;;;3.20;1.40;;;;;;;18.98;67.01;100089.78;5073773;28;20182;-63
2023/04/29 02:57:11;;;;;;;1.93;1.20;;;;;;;18.97;67.16;100097.53;5067177;28;20178;-63
2023/04/29 02:59:37;;;;;;;1.83;1.13;;;;;;;18.98;67.12;100092.63;5067141;28;20713;-63
2023/04/29 03:02:02;;;;;;;2.17;1.20;;;;;;;18.97;67.15;100102.44;5068705;28;20197;-63
2023/04/29 03:04:28;;;;;;;2.67;1.47;;;;;;;18.97;67.28;100102.44;5066939;28;20202;-63
2023/04/29 03:06:56;;;;;;;2.17;1.10;;;;;;;18.97;66.98;100099.56;5065615;28;20175;-63
2023/04/29 03:09:22;;;;;;;2.20;1.30;;;;;;;18.97;67.04;100088.13;5057908;28;20266;-63
2023/04/29 03:11:48;;;;;;;2.33;1.30;;;;;;;18.97;67.06;100102.44;5067506;28;20968;-63
2023/04/29 03:14:13;;;;;;;3.53;1.40;;;;;;;18.96;67.06;100095.88;5072429;28;20420;-63
2023/04/29 03:16:38;;;;;;;2.23;1.27;;;;;;;18.97;67.01;100102.44;5087775;28;20224;-63
2023/04/29 03:19:04;;;;;;;2.73;1.23;;;;;;;18.95;67.37;100091.38;5084632;28;20201;-63
2023/04/29 03:21:30;;;;;;;3.03;1.20;;;;;;;18.95;66.94;100097.09;5083183;28;20186;-63
2023/04/29 03:23:55;;;;;;;3.73;1.40;;;;;;;18.95;67.08;100099.97;5069402;28;20214;-63
2023/04/29 03:26:23;;;;;;;1.87;1.00;;;;;;;18.94;67.04;100104.03;5052468;28;20194;-63
2023/04/29 03:28:48;;;;;;;2.20;1.17;;;;;;;18.96;67.10;100101.59;5070486;28;20281;-63
2023/04/29 03:31:15;;;;;;;2.77;1.20;;;;;;;18.94;67.04;100104.03;5069715;28;20409;-63
2023/04/29 03:33:40;;;;;;;2.70;1.30;;;;;;;18.93;66.99;100108.13;5074158;28;20202;-63
2023/04/29 03:36:07;;;;;;;2.20;1.37;;;;;;;18.95;66.86;100107.69;5070242;28;20402;-63
2023/04/29 03:38:33;;;;;;;2.60;1.30;;;;;;;18.94;66.99;100112.63;5070873;28;20665;-63
2023/04/29 03:40:58;;;;;;;2.00;1.10;;;;;;;18.94;67.09;100108.94;5072305;28;20440;-63
2023/04/29 03:43:23;;;;;;;1.60;0.90;;;;;;;18.95;66.93;100113.44;5075903;28;20198;-63
2023/04/29 03:45:49;;;;;;;3.10;1.50;;;;;;;18.94;66.97;100108.94;5070274;28;20163;-63
2023/04/29 03:48:15;;;;;;;1.87;1.00;;;;;;;18.94;66.75;100120.38;5071974;28;20191;-63
2023/04/29 03:50:41;;;;;;;2.60;1.17;;;;;;;18.93;66.91;100122.41;5069685;28;20172;-63
2023/04/29 03:53:07;;;;;;;2.60;1.47;;;;;;;18.93;66.64;100122.41;5069423;28;20820;-63
2023/04/29 03:55:32;;;;;;;2.03;1.27;;;;;;;18.93;66.91;100122.41;5069104;28;20209;-63
2023/04/29 03:57:58;;;;;;;1.90;1.20;;;;;;;18.94;66.94;100126.09;5087818;28;20201;-63
2023/04/29 04:00:25;;;;;;;2.43;1.13;;;;;;;18.93;66.76;100130.16;5072662;28;20175;-63
2023/04/29 04:02:51;;;;;;;2.43;1.30;;;;;;;18.93;66.78;100125.28;5072186;28;20203;-63
2023/04/29 04:05:19;;;;;;;2.40;1.27;;;;;;;18.92;66.67;100126.47;5069857;28;20461;-63
2023/04/29 04:07:45;;;;;;;2.27;1.40;;;;;;;18.92;66.79;100128.53;5071652;28;20217;-63
2023/04/29 04:10:10;;;;;;;2.30;1.17;;;;;;;18.93;66.52;100142.44;5069893;28;20421;-63
2023/04/29 04:12:36;;;;;;;2.77;1.13;;;;;;;18.92;66.76;100134.25;5069767;28;20227;-63
2023/04/29 04:15:02;;;;;;;2.27;1.40;;;;;;;18.92;66.81;100135.06;5081013;28;20186;-63
2023/04/29 04:17:28;;;;;;;2.70;1.13;;;;;;;18.91;66.71;100138.31;5089674;28;20197;-63
2023/04/29 04:19:54;;;;;;;2.00;1.20;;;;;;;18.91;66.63;100139.13;5083432;28;20445;-63
2023/04/29 04:22:20;;;;;;;2.50;1.47;;;;;;;18.92;66.75;100146.50;5087684;28;20177;-63
2023/04/29 04:24:45;;;;;;;2.33;1.30;;;;;;;18.93;66.78;100148.16;5088617;28;20220;-63
2023/04/29 04:27:11;;;;;;;1.70;1.00;;;;;;;18.93;66.78;100158.78;5088017;28;20154;-63
2023/04/29 04:29:36;;;;;;;2.67;1.20;;;;;;;18.90;66.61;100151.78;5079316;28;20175;-63
2023/04/29 04:32:02;;;;;;;1.80;1.00;;;;;;;18.93;66.70;100164.50;5067290;28;20170;-63
2023/04/29 04:34:27;;;;;;;1.87;1.10;;;;;;;18.92;66.58;100163.66;5067825;28;20178;-63
2023/04/29 04:36:52;;;;;;;2.03;1.10;;;;;;;18.92;66.71;100160.00;5068363;28;20205;-63
2023/04/29 04:39:18;;;;;;;1.80;0.97;;;;;;;18.93;66.40;100161.63;5067335;28;20179;-63
2023/04/29 04:41:43;;;;;;;3.00;1.33;;;;;;;18.93;66.51;100171.06;5068828;28;20631;-63
2023/04/29 04:44:09;;;;;;;2.63;1.40;;;;;;;18.94;66.67;100178.41;5071151;28;20198;-63
2023/04/29 04:46:35;;;;;;;2.43;1.20;;;;;;;18.92;66.55;100177.97;5089872;28;20155;-63
2023/04/29 04:49:01;;;;;;;1.87;1.13;;;;;;;18.93;66.65;100187.38;5087796;28;20170;-64
2023/04/29 04:51:27;;;;;;;1.80;1.10;;;;;;;18.93;66.54;100185.34;5079672;28;20463;-64
2023/04/29 04:53:53;;;;;;;2.70;1.40;;;;;;;18.94;66.58;100186.16;5089149;28;20174;-63
2023/04/29 04:56:18;;;;;;;2.30;1.20;;;;;;;18.92;66.56;100186.53;5059192;28;20429;-63
2023/04/29 04:58:44;;;;;;;1.90;0.90;;;;;;;18.92;66.39;100191.47;5068765;28;20179;-63
2023/04/29 05:01:09;;;;;;;2.83;1.30;;;;;;;18.94;66.25;100191.88;5072414;28;20232;-63
2023/04/29 05:03:35;;;;;;;2.27;1.10;;;;;;;18.95;66.44;100196.38;5084974;28;20205;-64
2023/04/29 05:06:01;;;;;;;2.60;1.07;;;;;;;18.93;66.46;100202.53;5089600;28;20538;-63
2023/04/29 05:08:26;;;;;;;2.07;1.20;;;;;;;18.93;66.38;100204.53;5053228;28;20211;-63
2023/04/29 05:10:52;;;;;;;2.17;1.13;;;;;;;18.92;66.33;100215.16;5068369;28;20255;-63
2023/04/29 05:13:17;;;;;;;1.90;0.97;;;;;;;18.92;66.57;100215.16;5073825;28;20258;-63
2023/04/29 05:15:43;;;;;;;2.23;1.20;;;;;;;18.92;66.31;100209.44;5088540;28;20272;-63
2023/04/29 05:18:09;;;;;;;2.00;1.10;;;;;;;18.93;66.54;100211.09;5087405;28;20310;-64
2023/04/29 05:20:34;;;;;;;1.70;1.10;;;;;;;18.92;66.27;100209.44;5068908;28;20198;-63
2023/04/29 05:23:00;;;;;;;2.90;1.33;;;;;;;18.92;66.51;100218.00;5068983;28;20195;-63
2023/04/29 05:25:26;;;;;;;2.70;1.00;;;;;;;18.94;66.28;100214.78;5075786;28;20193;-63
2023/04/29 05:27:52;;;;;;;1.73;1.03;;;;;;;18.93;66.46;100221.72;5088777;28;20174;-63
2023/04/29 05:30:18;;;;;;;1.93;1.00;;;;;;;18.93;66.35;100224.56;5069965;28;20540;-63
2023/04/29 05:32:44;;;;;;;2.10;1.10;;;;;;;18.94;66.24;100224.19;5087539;28;20413;-63
2023/04/29 05:35:10;;;;;;;2.37;1.30;;;;;;;18.92;66.38;100229.47;5072498;28;20717;-64
2023/04/29 05:37:36;;;;;;;1.70;0.87;;;;;;;18.92;66.47;100232.31;5048862;28;20500;-63
2023/04/29 05:40:01;;;;;;;2.00;0.97;;;;;;;18.92;66.41;100238.03;5076624;28;20186;-63
2023/04/29 05:42:26;;;;;;;1.97;1.07;;;;;;;18.93;66.50;100251.16;5080433;28;20221;-63
2023/04/29 05:44:52;;;;;;;2.10;0.97;;;;;;;18.93;66.27;100238.88;5067989;28;20194;-63
2023/04/29 05:47:18;;;;;;;3.00;1.00;;;;;;;18.92;66.19;100246.63;5066511;28;20182;-63
2023/04/29 05:49:43;;;;;;;2.00;1.03;;;;;;;18.93;66.27;100256.03;5065944;28;20171;-63
2023/04/29 05:52:08;;;;;;;2.70;1.20;;;;;;;18.93;66.31;100256.03;5069777;28;20550;-63
2023/04/29 05:54:34;;;;;;;2.20;1.00;;;;;;;18.93;66.39;100264.63;5067021;28;20614;-63
2023/04/29 05:57:01;;;;;;;2.20;1.00;;;;;;;18.91;66.45;100264.19;5067120;28;20182;-63
2023/04/29 05:59:29;;;;;;;1.67;0.87;;;;;;;18.92;66.10;100269.50;5066006;28;20179;-63
2023/04/29 06:01:55;;;;;;;2.70;1.00;;;;;;;18.93;66.29;100274.03;5076762;28;20449;-63
2023/04/29 06:04:20;;;;;;;2.23;1.10;;;;;;;18.94;66.10;100277.72;5049180;28;20480;-63
2023/04/29 06:06:46;;;;;;;1.70;1.00;;;;;;;18.94;66.32;100277.72;5073170;28;20537;-63
2023/04/29 06:09:14;;;;;;;2.10;1.20;;;;;;;18.94;66.28;100275.69;5072146;28;20175;-64
2023/04/29 06:11:39;;;;;;;1.77;1.10;;;;;;;18.93;66.26;100276.91;5069367;28;20226;-63
2023/04/29 06:14:05;;;;;;;2.07;1.23;;;;;;;18.92;66.11;100278.09;5067557;28;20432;-63
2023/04/29 06:16:31;;;;;;;1.87;1.20;;;;;;;18.93;66.12;100284.66;5065300;28;20183;-63
2023/04/29 06:18:57;;;;;;;2.00;1.13;;;;;;;18.93;65.99;100282.63;5054228;28;20183;-63
2023/04/29 06:21:22;;;;;;;2.00;1.00;;;;;;;18.94;66.18;100275.69;5047774;28;20168;-63
2023/04/29 06:23:48;;;;;;;1.93;1.10;;;;;;;18.94;66.43;100286.28;5052096;28;20482;-63
2023/04/29 06:26:14;;;;;;;2.57;1.03;;;;;;;18.93;66.17;100279.75;5083917;28;20190;-63
2023/04/29 06:28:39;;;;;;;4.13;0.90;;;;;;;18.94;66.10;100284.28;5075702;28;20449;-62
2023/04/29 06:31:05;;;;;;;3.33;1.57;;;;;;;18.80;64.22;100281.16;5050076;28;20263;-63
2023/04/29 06:33:32;;;;;;;3.20;1.70;;;;;;;18.65;63.51;100290.72;5083877;28;20151;-63
2023/04/29 06:35:58;;;;;;;4.73;2.33;;;;;;;18.59;63.72;100289.38;5081781;28;20192;-63
2023/04/29 06:38:24;;;;;;;8.10;3.73;;;;;;;18.53;64.56;100292.94;5065412;28;20448;-63
2023/04/29 06:40:49;;;;;;;5.63;2.67;;;;;;;18.45;63.92;100292.00;5067391;28;20334;-62
2023/04/29 06:43:15;;;;;;;5.70;2.60;;;;;;;18.57;64.69;100288.94;5055188;28;20202;-64
2023/04/29 06:45:41;;;;;;;8.40;2.70;;;;;;;18.64;63.10;100294.78;5068911;28;20182;-63
2023/04/29 06:48:06;;;;;;;7.50;3.27;;;;;;;18.55;62.78;100293.38;5077656;28;20286;-63
2023/04/29 06:50:32;;;;;;;8.13;2.80;;;;;;;18.54;62.80;100298.28;5085191;28;20421;-64
2023/04/29 06:52:58;;;;;;;7.27;3.03;;;;;;;18.66;62.04;100303.78;5082216;28;20170;-63
2023/04/29 06:55:24;;;;;;;7.37;2.77;;;;;;;18.99;61.06;100300.28;5049677;28;20182;-61
2023/04/29 06:57:49;;;;;;;5.30;2.53;;;;;;;19.28;60.07;100308.13;5062946;28;20183;-62
2023/04/29 07:00:15;;;;;;;4.70;2.57;;;;;;;19.37;59.37;100312.34;5064642;28;20308;-63
2023/04/29 07:02:40;;;;;;;4.90;2.30;;;;;;;19.60;59.24;100318.84;5069032;28;20160;-62
2023/04/29 07:05:08;;;;;;;8.70;2.50;;;;;;;19.69;59.18;100307.91;5070246;28;20257;-62
2023/04/29 07:07:34;;;;;;;4.90;2.00;;;;;;;19.74;59.39;100313.31;5079639;28;20211;-62
2023/04/29 07:10:00;;;;;;;4.87;2.17;;;;;;;19.80;59.54;100306.03;5052294;28;20501;-62
2023/04/29 07:12:25;;;;;;;5.30;2.40;;;;;;;19.89;59.24;100312.28;5068538;28;20219;-63
2023/04/29 07:14:51;;;;;;;3.93;2.13;;;;;;;19.88;59.45;100313.50;5067914;28;20183;-62
2023/04/29 07:17:16;;;;;;;3.10;2.00;;;;;;;19.78;59.34;100314.19;5067931;28;20180;-62
2023/04/29 07:19:42;;;;;;;5.53;2.30;;;;;;;19.66;60.93;100317.28;5063626;28;20171;-63
2023/04/29 07:22:07;;;;;;;5.20;2.63;;;;;;;19.83;61.45;100315.88;5067904;28;20248;-62
2023/04/29 07:24:33;;;;;;;4.40;2.50;;;;;;;19.93;60.42;100318.88;5067797;28;20219;-63
2023/04/29 07:26:58;;;;;;;3.90;2.03;;;;;;;19.79;61.55;100332.19;5068149;28;20171;-62
2023/04/29 07:29:23;;;;;;;6.17;2.63;;;;;;;19.85;61.89;100327.75;5069615;28;20186;-61
2023/04/29 07:31:49;;;;;;;3.80;2.30;;;;;;;19.76;61.85;100324.38;5067864;28;20183;-62
2023/04/29 07:34:15;;;;;;;6.27;2.63;;;;;;;19.77;61.26;100326.03;5049381;28;20713;-62
2023/04/29 07:36:40;;;;;;;6.23;2.40;;;;;;;19.80;61.67;100328.94;5067003;28;20179;-61
2023/04/29 07:39:05;;;;;;;4.60;2.63;;;;;;;19.84;61.56;100326.94;5065779;28;20193;-62
2023/04/29 07:41:31;;;;;;;4.70;2.33;;;;;;;19.76;62.18;100325.19;5079269;28;20190;-63
2023/04/29 07:43:56;;;;;;;4.30;2.60;;;;;;;19.73;62.32;100331.72;5067224;28;20589;-63
2023/04/29 07:46:22;;;;;;;13.90;2.40;;;;;;;19.79;62.51;100327.28;5073068;28;20811;-62
2023/04/29 07:48:47;;;;;;;4.90;2.30;;;;;;;19.87;61.85;100331.88;5070872;28;20206;-63
2023/04/29 07:51:13;;;;;;;3.10;2.10;;;;;;;19.78;62.21;100330.53;5066342;28;20210;-63
2023/04/29 07:53:39;;;;;;;7.17;2.30;;;;;;;19.71;62.71;100336.19;5055013;28;20634;-63
2023/04/29 07:56:06;;;;;;;4.70;2.00;;;;;;;19.70;62.99;100328.78;5067825;28;20497;-62
2023/04/29 07:58:32;;;;;;;4.70;1.80;;;;;;;19.72;62.99;100340.69;5051356;28;20452;-63
2023/04/29 08:01:04;;;;;;;4.93;1.90;;;;;;;19.68;62.87;100340.66;5068578;28;20445;-63
2023/04/29 08:03:30;;;;;;;5.70;1.80;;;;;;;19.68;62.98;100343.50;5088133;28;20201;-62
2023/04/29 08:06:00;;;;;;;4.00;2.00;;;;;;;19.69;62.97;100347.19;5088256;28;20417;-63
2023/04/29 08:08:25;;;;;;;3.70;2.03;;;;;;;19.80;62.79;100354.72;5075232;28;20203;-62
2023/04/29 08:10:51;;;;;;;5.10;2.30;;;;;;;19.82;62.71;100346.56;5066774;28;20430;-62
2023/04/29 08:13:16;;;;;;;3.77;2.10;;;;;;;19.80;62.77;100354.72;5069131;28;20230;-63
2023/04/29 08:15:42;;;;;;;3.77;1.97;;;;;;;19.71;62.96;100354.19;5048725;28;20293;-62
2023/04/29 08:18:08;;;;;;;3.80;2.10;;;;;;;19.66;62.90;100354.50;5068077;28;20591;-63
2023/04/29 08:20:34;;;;;;;3.30;2.00;;;;;;;19.67;62.83;100355.34;5052180;28;20429;-62
2023/04/29 08:22:59;;;;;;;3.30;1.97;;;;;;;19.69;62.74;100365.22;5059014;28;20223;-63
2023/04/29 08:25:25;;;;;;;5.10;2.10;;;;;;;19.68;62.82;100363.56;5040817;28;20196;-64
2023/04/29 08:27:51;;;;;;;7.73;2.57;;;;;;;19.67;62.85;100367.63;5068275;28;20203;-63
2023/04/29 08:30:17;;;;;;;4.87;2.50;;;;;;;19.64;62.61;100371.28;5067940;28;20420;-65
2023/04/29 08:32:42;;;;;;;3.13;1.80;;;;;;;19.63;62.42;100366.75;5067789;28;20191;-64
2023/04/29 08:35:08;;;;;;;3.63;1.90;;;;;;;19.55;62.75;100358.44;5069317;28;20182;-63
2023/04/29 08:37:34;;;;;;;3.90;2.17;;;;;;;19.51;62.63;100355.50;5071132;28;20195;-64
2023/04/29 08:39:59;;;;;;;5.40;2.67;;;;;;;19.48;62.16;100350.59;5069412;28;20186;-64
2023/04/29 08:42:43;;;;;;;4.80;2.60;;;;;;;19.47;61.83;100356.69;5053412;28;20244;-62
2023/04/29 08:45:08;;;;;;;4.63;2.70;;;;;;;19.45;61.78;100359.09;5072810;28;20179;-64
2023/04/29 08:47:34;;;;;;;8.10;2.50;;;;;;;19.41;61.63;100353.31;5055971;28;20476;-64
2023/04/29 08:50:03;;;;;;;2.70;2.03;;;;;;;19.40;61.57;100357.41;5068525;28;20183;-62
2023/04/29 08:52:31;;;;;;;3.23;1.90;;;;;;;19.42;61.56;100357.03;5051765;28;20983;-63
2023/04/29 08:54:57;;;;;;;6.00;2.30;;;;;;;19.42;61.59;100363.56;5062253;28;20424;-63
2023/04/29 08:57:24;;;;;;;5.57;2.60;;;;;;;19.43;61.75;100373.81;5068871;28;20457;-64
2023/04/29 08:59:50;;;;;;;11.43;2.33;;;;;;;19.42;61.77;100363.56;5049838;28;21186;-63
2023/04/29 09:02:20;;;;;;;5.07;1.90;;;;;;;19.41;61.78;100363.97;5080057;28;20447;-62
2023/04/29 09:04:57;;;;;;;4.03;2.00;;;;;;;19.41;61.73;100369.69;5052561;28;20298;-63
2023/04/29 09:07:23;;;;;;;6.43;2.30;;;;;;;19.41;61.70;100370.50;5075285;28;20453;-63
2023/04/29 09:09:48;;;;;;;4.57;1.93;;;;;;;19.41;61.93;100373.34;5049525;28;20432;-63
2023/04/29 09:12:14;;;;;;;3.03;1.90;;;;;;;19.40;62.05;100374.56;5034131;28;20281;-62
2023/04/29 09:14:39;;;;;;;3.40;1.83;;;;;;;19.40;62.14;100368.84;5071294;28;20194;-63
2023/04/29 09:17:05;;;;;;;3.30;1.97;;;;;;;19.39;62.10;100366.38;5075307;28;20171;-63
2023/04/29 09:19:31;;;;;;;6.50;1.70;;;;;;;19.38;62.35;100377.00;5050542;28;20186;-63
2023/04/29 09:21:56;;;;;;;3.40;1.47;;;;;;;19.36;62.50;100376.56;5057897;28;20583;-63
2023/04/29 09:24:29;;;;;;;3.20;2.13;;;;;;;19.35;62.55;100383.50;5067891;28;20658;-63
2023/04/29 09:26:55;;;;;;;4.33;1.93;;;;;;;19.35;62.70;100382.66;5070491;28;20179;-62
2023/04/29 09:29:20;;;;;;;4.30;1.67;;;;;;;19.35;62.65;100379.78;5050131;28;21015;-62
2023/04/29 09:31:46;;;;;;;5.57;1.90;;;;;;;19.31;62.82;100382.59;5067949;28;20167;-63
2023/04/29 09:34:11;;;;;;;4.03;1.77;;;;;;;19.31;62.81;100379.75;5068267;28;20180;-63
2023/04/29 09:36:40;;;;;;;3.23;1.60;;;;;;;19.30;62.90;100383.81;5082776;28;20194;-62
2023/04/29 09:39:10;;;;;;;2.70;1.70;;;;;;;19.29;63.08;100385.03;5071920;28;20593;-63
2023/04/29 09:41:40;;;;;;;3.80;2.13;;;;;;;19.27;63.09;100381.72;5076642;28;20437;-62
2023/04/29 09:44:06;;;;;;;5.10;1.60;;;;;;;19.26;63.17;100385.78;5048578;28;20511;-62
2023/04/29 09:46:32;;;;;;;3.10;1.50;;;;;;;19.27;63.15;100386.63;5053250;28;20421;-63
2023/04/29 09:48:58;;;;;;;2.50;1.63;;;;;;;19.29;63.08;100381.34;5068098;28;20536;-62
2023/04/29 09:51:23;;;;;;;2.60;1.43;;;;;;;19.27;63.20;100380.91;5064154;28;20441;-62
2023/04/29 09:53:49;;;;;;;4.20;1.70;;;;;;;19.26;63.20;100376.41;5061094;28;20197;-63
2023/04/29 09:56:15;;;;;;;3.00;1.80;;;;;;;19.26;63.34;100373.53;5067557;28;20182;-63
2023/04/29 09:58:40;;;;;;;2.70;1.37;;;;;;;19.26;63.24;100379.25;5067338;28;20190;-63
2023/04/29 10:01:06;;;;;;;4.53;1.43;;;;;;;19.28;63.37;100376.81;5083506;28;20477;-63
2023/04/29 10:03:36;;;;;;;3.30;1.60;;;;;;;19.26;63.38;100382.94;5068216;28;20252;-62
2023/04/29 10:06:02;;;;;;;2.00;1.23;;;;;;;19.25;63.50;100375.56;5070453;28;20191;-63
2023/04/29 10:08:28;;;;;;;2.53;1.57;;;;;;;19.25;63.41;100384.16;5068279;28;20827;-63
2023/04/29 10:10:56;;;;;;;2.63;1.50;;;;;;;19.25;63.50;100378.41;5065851;28;20449;-63
2023/04/29 10:13:25;;;;;;;3.50;1.50;;;;;;;19.25;63.74;100371.84;5050580;28;20738;-63
2023/04/29 10:16:07;;;;;;;8.50;2.23;;;;;;;19.30;63.95;100375.22;5048169;28;20784;-62
2023/04/29 10:18:36;;;;;;;4.50;2.00;;;;;;;19.30;63.28;100380.13;5051297;28;20458;-63
2023/04/29 10:21:03;;;;;;;5.93;1.70;;;;;;;19.26;63.41;100382.13;5068331;28;20441;-63
2023/04/29 10:23:29;;;;;;;3.50;1.83;;;;;;;19.24;63.50;100382.50;5070791;28;20543;-63
2023/04/29 10:25:54;;;;;;;3.93;2.30;;;;;;;19.23;63.42;100380.84;5068460;28;20435;-62
2023/04/29 10:28:20;;;;;;;3.63;2.00;;;;;;;19.23;63.30;100377.16;5068436;28;20429;-63
2023/04/29 10:30:52;;;;;;;3.43;1.90;;;;;;;19.23;63.08;100374.28;5087464;28;20186;-62
2023/04/29 10:33:18;;;;;;;4.70;2.10;;;;;;;19.23;62.96;100378.00;5089981;28;20228;-63
2023/04/29 10:35:46;;;;;;;6.83;1.80;;;;;;;19.24;63.01;100375.94;5068765;28;20433;-62
2023/04/29 10:38:40;;;;;;;5.90;1.70;;;;;;;19.23;62.94;100363.69;5073220;28;20178;-63
2023/04/29 10:41:30;;;;;;;6.80;1.73;;;;;;;19.21;63.18;100360.31;5055399;28;20964;-62
2023/04/29 10:43:57;;;;;;;3.37;1.97;;;;;;;19.21;63.12;100362.38;5054879;28;20487;-63
2023/04/29 10:46:26;;;;;;;3.27;1.73;;;;;;;19.23;63.41;100363.69;5089337;28;20404;-63
2023/04/29 10:49:10;;;;;;;4.37;1.80;;;;;;;19.20;63.48;100361.53;5078601;28;21220;-63
2023/04/29 10:51:40;;;;;;;3.43;1.60;;;;;;;19.24;63.72;100359.59;5066877;28;20429;-63
2023/04/29 10:54:12;;;;;;;5.40;3.10;;;;;;;19.25;63.55;100369.84;5050695;28;20498;-63
2023/04/29 10:56:46;;;;;;;4.93;1.73;;;;;;;19.27;63.31;100355.94;5049593;28;20444;-63
2023/04/29 10:59:13;;;;;;;4.37;2.30;;;;;;;19.27;63.24;100355.94;5067549;28;20436;-63
2023/04/29 11:01:51;;;;;;;9.33;2.40;;;;;;;19.24;63.25;100356.75;5069767;28;20445;-63
2023/04/29 11:04:17;;;;;;;6.97;2.00;;;;;;;19.23;63.51;100352.22;5049247;28;20809;-63
2023/04/29 11:06:53;;;;;;;7.63;2.10;;;;;;;19.23;63.48;100351.41;5075559;28;20437;-62
2023/04/29 11:09:26;;;;;;;4.37;1.80;;;;;;;19.21;64.03;100354.59;5064117;28;20532;-63
2023/04/29 11:11:56;;;;;;;4.00;1.70;;;;;;;19.20;63.36;100355.81;5068995;28;20477;-63
2023/04/29 11:14:35;;;;;;;2.93;1.57;;;;;;;19.20;63.84;100360.69;5084104;28;20577;-63
2023/04/29 11:17:02;;;;;;;6.40;1.97;;;;;;;19.21;63.64;100353.78;5085584;28;20892;-63
2023/04/29 11:19:32;;;;;;;7.50;2.37;;;;;;;19.20;63.65;100355.81;5051328;28;20410;-63
2023/04/29 11:22:10;;;;;;;7.10;1.93;;;;;;;19.20;63.60;100352.97;5069558;28;20432;-63
2023/04/29 11:24:36;;;;;;;10.90;2.23;;;;;;;19.20;63.57;100352.97;5054045;28;21015;-63